sensor_id;sensor_type;location;lat;lon;timestamp;temperature;humidity
63976;DHT22;50167;47.958;21.780;2023-08-21T00:01:23;28.00;60.91
63976;DHT22;50167;47.958;21.780;2023-08-21T00:03:49;28.06;60.99
63976;DHT22;50167;47.958;21.780;2023-08-21T00:06:15;28.12;60.71
63976;DHT22;50167;47.958;21.780;2023-08-21T00:08:42;28.16;60.49
63976;DHT22;50167;47.958;21.780;2023-08-21T00:11:08;28.23;60.09
63976;DHT22;50167;47.958;21.780;2023-08-21T00:13:34;28.28;59.94
63976;DHT22;50167;47.958;21.780;2023-08-21T00:16:01;28.28;59.90
63976;DHT22;50167;47.958;21.780;2023-08-21T00:18:27;28.23;59.98
63976;DHT22;50167;47.958;21.780;2023-08-21T00:20:53;28.24;59.92
63976;DHT22;50167;47.958;21.780;2023-08-21T00:23:19;28.28;59.86
63976;DHT22;50167;47.958;21.780;2023-08-21T00:25:47;28.28;59.74
63976;DHT22;50167;47.958;21.780;2023-08-21T00:28:14;28.24;59.41
63976;DHT22;50167;47.958;21.780;2023-08-21T00:30:42;27.79;59.64
63976;DHT22;50167;47.958;21.780;2023-08-21T00:33:08;26.86;61.64
63976;DHT22;50167;47.958;21.780;2023-08-21T00:35:35;26.07;63.90
63976;DHT22;50167;47.958;21.780;2023-08-21T00:38:01;26.15;65.06
63976;DHT22;50167;47.958;21.780;2023-08-21T00:40:28;26.67;64.09
63976;DHT22;50167;47.958;21.780;2023-08-21T00:42:56;27.00;63.46
63976;DHT22;50167;47.958;21.780;2023-08-21T00:45:22;27.18;62.66
63976;DHT22;50167;47.958;21.780;2023-08-21T00:47:49;27.30;62.33
63976;DHT22;50167;47.958;21.780;2023-08-21T00:50:16;27.42;61.72
63976;DHT22;50167;47.958;21.780;2023-08-21T00:52:45;27.51;61.55
63976;DHT22;50167;47.958;21.780;2023-08-21T00:55:13;27.59;61.15
63976;DHT22;50167;47.958;21.780;2023-08-21T00:57:41;27.66;60.79
63976;DHT22;50167;47.958;21.780;2023-08-21T01:00:08;27.71;60.76
63976;DHT22;50167;47.958;21.780;2023-08-21T01:02:38;27.82;60.63
63976;DHT22;50167;47.958;21.780;2023-08-21T01:05:05;27.99;60.14
63976;DHT22;50167;47.958;21.780;2023-08-21T01:07:33;28.13;59.67
63976;DHT22;50167;47.958;21.780;2023-08-21T01:10:16;28.19;59.35
63976;DHT22;50167;47.958;21.780;2023-08-21T01:12:55;27.62;59.49
63976;DHT22;50167;47.958;21.780;2023-08-21T01:15:19;26.60;61.70
63976;DHT22;50167;47.958;21.780;2023-08-21T01:17:46;25.87;63.64
63976;DHT22;50167;47.958;21.780;2023-08-21T01:20:14;26.00;64.24
63976;DHT22;50167;47.958;21.780;2023-08-21T01:22:42;26.64;63.23
63976;DHT22;50167;47.958;21.780;2023-08-21T01:25:12;26.97;62.26
63976;DHT22;50167;47.958;21.780;2023-08-21T01:27:44;27.17;61.75
63976;DHT22;50167;47.958;21.780;2023-08-21T01:30:11;27.28;61.43
63976;DHT22;50167;47.958;21.780;2023-08-21T01:33:05;27.41;61.00
63976;DHT22;50167;47.958;21.780;2023-08-21T01:35:33;27.52;60.63
63976;DHT22;50167;47.958;21.780;2023-08-21T01:38:03;27.65;60.32
63976;DHT22;50167;47.958;21.780;2023-08-21T01:40:29;27.80;59.73
63976;DHT22;50167;47.958;21.780;2023-08-21T01:42:56;27.77;59.63
63976;DHT22;50167;47.958;21.780;2023-08-21T01:45:22;27.79;59.65
63976;DHT22;50167;47.958;21.780;2023-08-21T01:47:49;27.77;59.64
63976;DHT22;50167;47.958;21.780;2023-08-21T01:50:16;27.79;59.57
63976;DHT22;50167;47.958;21.780;2023-08-21T01:52:42;27.80;59.48
63976;DHT22;50167;47.958;21.780;2023-08-21T01:55:09;27.41;59.79
63976;DHT22;50167;47.958;21.780;2023-08-21T01:57:36;26.60;61.47
63976;DHT22;50167;47.958;21.780;2023-08-21T02:00:03;25.87;63.64
63976;DHT22;50167;47.958;21.780;2023-08-21T02:02:31;26.01;64.72
63976;DHT22;50167;47.958;21.780;2023-08-21T02:04:57;26.58;63.66
63976;DHT22;50167;47.958;21.780;2023-08-21T02:07:23;26.91;62.59
63976;DHT22;50167;47.958;21.780;2023-08-21T02:09:50;27.09;61.82
63976;DHT22;50167;47.958;21.780;2023-08-21T02:12:16;27.17;61.44
63976;DHT22;50167;47.958;21.780;2023-08-21T02:14:42;27.17;61.24
63976;DHT22;50167;47.958;21.780;2023-08-21T02:17:08;27.20;61.25
63976;DHT22;50167;47.958;21.780;2023-08-21T02:19:35;27.24;60.97
63976;DHT22;50167;47.958;21.780;2023-08-21T02:22:01;27.20;61.08
63976;DHT22;50167;47.958;21.780;2023-08-21T02:24:27;27.17;61.18
63976;DHT22;50167;47.958;21.780;2023-08-21T02:26:53;27.20;61.24
63976;DHT22;50167;47.958;21.780;2023-08-21T02:29:21;27.22;60.97
63976;DHT22;50167;47.958;21.780;2023-08-21T02:31:47;27.21;60.90
63976;DHT22;50167;47.958;21.780;2023-08-21T02:34:14;27.21;61.01
63976;DHT22;50167;47.958;21.780;2023-08-21T02:36:40;27.21;60.99
63976;DHT22;50167;47.958;21.780;2023-08-21T02:39:06;27.20;61.03
63976;DHT22;50167;47.958;21.780;2023-08-21T02:41:32;27.13;61.17
63976;DHT22;50167;47.958;21.780;2023-08-21T02:43:58;27.10;61.15
63976;DHT22;50167;47.958;21.780;2023-08-21T02:46:27;27.20;61.02
63976;DHT22;50167;47.958;21.780;2023-08-21T02:48:53;27.27;60.97
63976;DHT22;50167;47.958;21.780;2023-08-21T02:51:19;27.41;60.46
63976;DHT22;50167;47.958;21.780;2023-08-21T02:53:45;27.38;60.21
63976;DHT22;50167;47.958;21.780;2023-08-21T02:56:11;27.38;60.14
63976;DHT22;50167;47.958;21.780;2023-08-21T02:58:37;27.40;59.89
63976;DHT22;50167;47.958;21.780;2023-08-21T03:01:04;27.34;60.01
63976;DHT22;50167;47.958;21.780;2023-08-21T03:03:30;27.42;60.07
63976;DHT22;50167;47.958;21.780;2023-08-21T03:05:58;27.52;59.83
63976;DHT22;50167;47.958;21.780;2023-08-21T03:08:24;27.55;59.60
63976;DHT22;50167;47.958;21.780;2023-08-21T03:10:51;27.54;59.60
63976;DHT22;50167;47.958;21.780;2023-08-21T03:13:17;27.59;59.72
63976;DHT22;50167;47.958;21.780;2023-08-21T03:15:43;27.71;59.19
63976;DHT22;50167;47.958;21.780;2023-08-21T03:18:11;27.30;58.97
63976;DHT22;50167;47.958;21.780;2023-08-21T03:20:37;26.38;61.03
63976;DHT22;50167;47.958;21.780;2023-08-21T03:23:03;25.55;63.05
63976;DHT22;50167;47.958;21.780;2023-08-21T03:25:29;25.75;64.46
63976;DHT22;50167;47.958;21.780;2023-08-21T03:27:56;26.32;63.41
63976;DHT22;50167;47.958;21.780;2023-08-21T03:30:22;26.63;62.56
63976;DHT22;50167;47.958;21.780;2023-08-21T03:32:48;26.78;62.16
63976;DHT22;50167;47.958;21.780;2023-08-21T03:35:15;26.87;61.75
63976;DHT22;50167;47.958;21.780;2023-08-21T03:37:41;26.91;61.49
63976;DHT22;50167;47.958;21.780;2023-08-21T03:40:08;26.93;61.28
63976;DHT22;50167;47.958;21.780;2023-08-21T03:42:34;26.85;61.33
63976;DHT22;50167;47.958;21.780;2023-08-21T03:45:02;26.73;61.73
63976;DHT22;50167;47.958;21.780;2023-08-21T03:47:30;26.78;61.69
63976;DHT22;50167;47.958;21.780;2023-08-21T03:49:57;26.91;61.35
63976;DHT22;50167;47.958;21.780;2023-08-21T03:52:23;26.96;61.25
63976;DHT22;50167;47.958;21.780;2023-08-21T03:54:49;26.96;61.19
63976;DHT22;50167;47.958;21.780;2023-08-21T03:57:15;26.94;61.10
63976;DHT22;50167;47.958;21.780;2023-08-21T03:59:42;27.00;60.86
63976;DHT22;50167;47.958;21.780;2023-08-21T04:02:08;27.00;60.78
63976;DHT22;50167;47.958;21.780;2023-08-21T04:04:35;27.03;60.69
63976;DHT22;50167;47.958;21.780;2023-08-21T04:07:01;26.89;61.06
63976;DHT22;50167;47.958;21.780;2023-08-21T04:09:27;26.73;61.60
63976;DHT22;50167;47.958;21.780;2023-08-21T04:11:54;26.74;62.02
63976;DHT22;50167;47.958;21.780;2023-08-21T04:14:20;26.97;61.66
63976;DHT22;50167;47.958;21.780;2023-08-21T04:16:46;27.11;61.27
63976;DHT22;50167;47.958;21.780;2023-08-21T04:19:12;27.18;60.95
63976;DHT22;50167;47.958;21.780;2023-08-21T04:21:39;27.21;60.80
63976;DHT22;50167;47.958;21.780;2023-08-21T04:24:05;27.27;60.51
63976;DHT22;50167;47.958;21.780;2023-08-21T04:26:31;27.30;60.47
63976;DHT22;50167;47.958;21.780;2023-08-21T04:28:57;27.47;60.28
63976;DHT22;50167;47.958;21.780;2023-08-21T04:31:24;27.82;59.23
63976;DHT22;50167;47.958;21.780;2023-08-21T04:33:50;27.45;58.96
63976;DHT22;50167;47.958;21.780;2023-08-21T04:36:17;26.52;61.01
63976;DHT22;50167;47.958;21.780;2023-08-21T04:38:43;25.72;63.34
63976;DHT22;50167;47.958;21.780;2023-08-21T04:41:10;25.94;64.47
63976;DHT22;50167;47.958;21.780;2023-08-21T04:43:36;26.66;63.06
63976;DHT22;50167;47.958;21.780;2023-08-21T04:46:04;27.10;61.98
63976;DHT22;50167;47.958;21.780;2023-08-21T04:48:31;27.37;61.41
63976;DHT22;50167;47.958;21.780;2023-08-21T04:50:57;27.59;60.77
63976;DHT22;50167;47.958;21.780;2023-08-21T04:53:24;27.73;60.13
63976;DHT22;50167;47.958;21.780;2023-08-21T04:55:50;27.87;59.80
63976;DHT22;50167;47.958;21.780;2023-08-21T04:58:16;28.02;59.44
63976;DHT22;50167;47.958;21.780;2023-08-21T05:00:45;27.68;59.64
63976;DHT22;50167;47.958;21.780;2023-08-21T05:03:12;26.93;61.46
63976;DHT22;50167;47.958;21.780;2023-08-21T05:05:38;26.36;63.18
63976;DHT22;50167;47.958;21.780;2023-08-21T05:08:06;26.56;64.00
63976;DHT22;50167;47.958;21.780;2023-08-21T05:10:32;27.35;62.24
63976;DHT22;50167;47.958;21.780;2023-08-21T05:12:58;27.77;60.72
63976;DHT22;50167;47.958;21.780;2023-08-21T05:15:25;27.96;60.14
63976;DHT22;50167;47.958;21.780;2023-08-21T05:17:51;28.16;59.77
63976;DHT22;50167;47.958;21.780;2023-08-21T05:20:17;28.28;59.28
63976;DHT22;50167;47.958;21.780;2023-08-21T05:22:44;27.89;59.75
63976;DHT22;50167;47.958;21.780;2023-08-21T05:25:10;27.09;61.54
63976;DHT22;50167;47.958;21.780;2023-08-21T05:27:37;26.42;63.66
63976;DHT22;50167;47.958;21.780;2023-08-21T05:30:04;26.67;64.16
63976;DHT22;50167;47.958;21.780;2023-08-21T05:32:31;27.37;63.02
63976;DHT22;50167;47.958;21.780;2023-08-21T05:34:57;27.77;61.93
63976;DHT22;50167;47.958;21.780;2023-08-21T05:37:23;28.00;61.37
63976;DHT22;50167;47.958;21.780;2023-08-21T05:39:49;28.10;61.06
63976;DHT22;50167;47.958;21.780;2023-08-21T05:42:15;28.31;60.56
63976;DHT22;50167;47.958;21.780;2023-08-21T05:44:42;28.50;59.74
63976;DHT22;50167;47.958;21.780;2023-08-21T05:47:08;28.68;59.30
63976;DHT22;50167;47.958;21.780;2023-08-21T05:49:34;28.44;59.42
63976;DHT22;50167;47.958;21.780;2023-08-21T05:52:01;27.77;61.10
63976;DHT22;50167;47.958;21.780;2023-08-21T05:54:29;27.30;62.62
63976;DHT22;50167;47.958;21.780;2023-08-21T05:56:56;27.57;63.00
63976;DHT22;50167;47.958;21.780;2023-08-21T05:59:34;28.26;61.22
63976;DHT22;50167;47.958;21.780;2023-08-21T06:02:01;28.67;59.97
63976;DHT22;50167;47.958;21.780;2023-08-21T06:04:27;28.92;58.76
63976;DHT22;50167;47.958;21.780;2023-08-21T06:06:54;28.70;59.05
63976;DHT22;50167;47.958;21.780;2023-08-21T06:09:20;28.02;60.80
63976;DHT22;50167;47.958;21.780;2023-08-21T06:11:46;27.48;62.31
63976;DHT22;50167;47.958;21.780;2023-08-21T06:14:13;27.14;63.59
63976;DHT22;50167;47.958;21.780;2023-08-21T06:16:39;27.72;63.17
63976;DHT22;50167;47.958;21.780;2023-08-21T06:19:06;28.60;61.28
63976;DHT22;50167;47.958;21.780;2023-08-21T06:21:32;29.09;59.27
63976;DHT22;50167;47.958;21.780;2023-08-21T06:23:58;28.98;59.08
63976;DHT22;50167;47.958;21.780;2023-08-21T06:26:25;28.45;60.61
63976;DHT22;50167;47.958;21.780;2023-08-21T06:28:51;28.07;61.61
63976;DHT22;50167;47.958;21.780;2023-08-21T06:31:18;27.80;62.69
63976;DHT22;50167;47.958;21.780;2023-08-21T06:33:50;28.58;61.30
63976;DHT22;50167;47.958;21.780;2023-08-21T06:36:16;29.41;58.81
63976;DHT22;50167;47.958;21.780;2023-08-21T06:38:52;29.37;58.64
63976;DHT22;50167;47.958;21.780;2023-08-21T06:41:18;28.82;60.09
63976;DHT22;50167;47.958;21.780;2023-08-21T06:43:45;28.48;61.23
63976;DHT22;50167;47.958;21.780;2023-08-21T06:46:12;28.28;62.10
63976;DHT22;50167;47.958;21.780;2023-08-21T06:48:42;28.16;62.20
63976;DHT22;50167;47.958;21.780;2023-08-21T06:51:10;28.74;61.04
63976;DHT22;50167;47.958;21.780;2023-08-21T06:53:37;29.61;59.01
63976;DHT22;50167;47.958;21.780;2023-08-21T06:59:27;29.14;59.17
63976;DHT22;50167;47.958;21.780;2023-08-21T07:01:53;28.86;59.82
63976;DHT22;50167;47.958;21.780;2023-08-21T07:04:19;28.65;60.00
63976;DHT22;50167;47.958;21.780;2023-08-21T07:06:45;28.55;61.03
63976;DHT22;50167;47.958;21.780;2023-08-21T07:09:11;28.47;60.55
63976;DHT22;50167;47.958;21.780;2023-08-21T07:11:38;28.43;60.95
63976;DHT22;50167;47.958;21.780;2023-08-21T07:14:04;28.37;60.41
63976;DHT22;50167;47.958;21.780;2023-08-21T07:16:30;28.35;60.95
63976;DHT22;50167;47.958;21.780;2023-08-21T07:18:56;28.38;61.64
63976;DHT22;50167;47.958;21.780;2023-08-21T07:21:23;28.41;61.25
63976;DHT22;50167;47.958;21.780;2023-08-21T07:23:49;28.50;61.10
63976;DHT22;50167;47.958;21.780;2023-08-21T07:26:24;28.56;61.60
63976;DHT22;50167;47.958;21.780;2023-08-21T07:28:50;28.64;61.19
63976;DHT22;50167;47.958;21.780;2023-08-21T07:31:18;28.72;61.30
63976;DHT22;50167;47.958;21.780;2023-08-21T07:33:45;28.79;60.88
63976;DHT22;50167;47.958;21.780;2023-08-21T07:36:11;28.83;61.09
63976;DHT22;50167;47.958;21.780;2023-08-21T07:38:39;28.92;61.01
63976;DHT22;50167;47.958;21.780;2023-08-21T07:41:10;29.03;61.45
63976;DHT22;50167;47.958;21.780;2023-08-21T07:43:41;29.19;61.31
63976;DHT22;50167;47.958;21.780;2023-08-21T07:46:11;29.30;60.67
63976;DHT22;50167;47.958;21.780;2023-08-21T07:48:45;29.41;60.74
63976;DHT22;50167;47.958;21.780;2023-08-21T07:51:11;29.51;59.71
63976;DHT22;50167;47.958;21.780;2023-08-21T07:53:38;29.58;59.94
63976;DHT22;50167;47.958;21.780;2023-08-21T07:56:05;29.67;59.88
63976;DHT22;50167;47.958;21.780;2023-08-21T07:58:32;29.74;59.49
63976;DHT22;50167;47.958;21.780;2023-08-21T08:00:59;29.84;59.62
63976;DHT22;50167;47.958;21.780;2023-08-21T08:03:27;29.94;59.37
63976;DHT22;50167;47.958;21.780;2023-08-21T08:05:53;30.01;58.93
63976;DHT22;50167;47.958;21.780;2023-08-21T08:08:19;30.08;58.86
63976;DHT22;50167;47.958;21.780;2023-08-21T08:10:45;30.19;58.90
63976;DHT22;50167;47.958;21.780;2023-08-21T08:13:12;30.30;58.11
63976;DHT22;50167;47.958;21.780;2023-08-21T08:15:38;30.49;57.62
63976;DHT22;50167;47.958;21.780;2023-08-21T08:18:05;30.63;57.36
63976;DHT22;50167;47.958;21.780;2023-08-21T08:20:33;30.78;56.98
63976;DHT22;50167;47.958;21.780;2023-08-21T08:22:59;30.87;56.69
63976;DHT22;50167;47.958;21.780;2023-08-21T08:25:26;30.95;56.18
63976;DHT22;50167;47.958;21.780;2023-08-21T08:27:52;31.02;57.02
63976;DHT22;50167;47.958;21.780;2023-08-21T08:30:19;31.11;55.07
63976;DHT22;50167;47.958;21.780;2023-08-21T08:32:45;31.14;56.36
63976;DHT22;50167;47.958;21.780;2023-08-21T08:35:13;31.21;54.29
63976;DHT22;50167;47.958;21.780;2023-08-21T08:37:43;31.24;54.27
63976;DHT22;50167;47.958;21.780;2023-08-21T08:40:11;31.24;54.39
63976;DHT22;50167;47.958;21.780;2023-08-21T08:42:38;31.33;54.36
63976;DHT22;50167;47.958;21.780;2023-08-21T08:45:06;31.43;54.43
63976;DHT22;50167;47.958;21.780;2023-08-21T08:47:34;31.56;54.15
63976;DHT22;50167;47.958;21.780;2023-08-21T08:50:05;31.66;54.12
63976;DHT22;50167;47.958;21.780;2023-08-21T08:52:38;31.77;53.57
63976;DHT22;50167;47.958;21.780;2023-08-21T08:55:05;31.83;52.99
63976;DHT22;50167;47.958;21.780;2023-08-21T08:57:35;31.94;53.69
63976;DHT22;50167;47.958;21.780;2023-08-21T09:00:03;32.11;52.90
63976;DHT22;50167;47.958;21.780;2023-08-21T09:02:30;32.24;51.56
63976;DHT22;50167;47.958;21.780;2023-08-21T09:04:56;32.27;51.65
63976;DHT22;50167;47.958;21.780;2023-08-21T09:07:23;32.35;51.41
63976;DHT22;50167;47.958;21.780;2023-08-21T09:09:49;32.43;50.79
63976;DHT22;50167;47.958;21.780;2023-08-21T09:12:17;32.48;50.71
63976;DHT22;50167;47.958;21.780;2023-08-21T09:14:45;32.57;51.46
63976;DHT22;50167;47.958;21.780;2023-08-21T09:17:12;32.66;51.02
63976;DHT22;50167;47.958;21.780;2023-08-21T09:19:39;32.72;51.12
63976;DHT22;50167;47.958;21.780;2023-08-21T09:24:41;32.79;50.66
63976;DHT22;50167;47.958;21.780;2023-08-21T09:27:16;32.79;50.93
63976;DHT22;50167;47.958;21.780;2023-08-21T09:29:43;32.80;50.10
63976;DHT22;50167;47.958;21.780;2023-08-21T09:32:09;32.79;49.84
63976;DHT22;50167;47.958;21.780;2023-08-21T09:34:37;32.83;50.71
63976;DHT22;50167;47.958;21.780;2023-08-21T09:37:08;32.90;50.01
63976;DHT22;50167;47.958;21.780;2023-08-21T09:39:36;32.93;49.04
63976;DHT22;50167;47.958;21.780;2023-08-21T09:42:09;32.96;49.07
63976;DHT22;50167;47.958;21.780;2023-08-21T09:44:40;33.03;48.33
63976;DHT22;50167;47.958;21.780;2023-08-21T09:47:11;33.06;47.44
63976;DHT22;50167;47.958;21.780;2023-08-21T09:49:39;33.09;48.44
63976;DHT22;50167;47.958;21.780;2023-08-21T09:52:08;33.13;48.61
63976;DHT22;50167;47.958;21.780;2023-08-21T09:54:39;33.18;48.49
63976;DHT22;50167;47.958;21.780;2023-08-21T09:57:07;33.24;47.96
63976;DHT22;50167;47.958;21.780;2023-08-21T09:59:34;33.28;46.96
63976;DHT22;50167;47.958;21.780;2023-08-21T10:02:03;33.36;46.74
63976;DHT22;50167;47.958;21.780;2023-08-21T10:04:32;33.41;46.59
63976;DHT22;50167;47.958;21.780;2023-08-21T10:07:00;33.44;47.29
63976;DHT22;50167;47.958;21.780;2023-08-21T10:09:29;33.53;47.21
63976;DHT22;50167;47.958;21.780;2023-08-21T10:11:58;33.63;47.10
63976;DHT22;50167;47.958;21.780;2023-08-21T10:14:26;33.69;46.43
63976;DHT22;50167;47.958;21.780;2023-08-21T10:16:53;33.78;46.35
63976;DHT22;50167;47.958;21.780;2023-08-21T10:19:20;33.81;45.49
63976;DHT22;50167;47.958;21.780;2023-08-21T10:21:48;33.79;45.86
63976;DHT22;50167;47.958;21.780;2023-08-21T10:24:33;33.87;45.28
63976;DHT22;50167;47.958;21.780;2023-08-21T10:27:00;33.87;44.91
63976;DHT22;50167;47.958;21.780;2023-08-21T10:29:26;33.88;45.52
63976;DHT22;50167;47.958;21.780;2023-08-21T10:32:03;33.91;44.84
63976;DHT22;50167;47.958;21.780;2023-08-21T10:34:36;33.87;43.87
63976;DHT22;50167;47.958;21.780;2023-08-21T10:37:11;33.88;44.20
63976;DHT22;50167;47.958;21.780;2023-08-21T10:39:56;33.88;43.52
63976;DHT22;50167;47.958;21.780;2023-08-21T10:42:41;33.82;42.88
63976;DHT22;50167;47.958;21.780;2023-08-21T10:45:12;33.76;43.10
63976;DHT22;50167;47.958;21.780;2023-08-21T10:47:39;33.71;43.50
63976;DHT22;50167;47.958;21.780;2023-08-21T10:50:09;33.69;43.86
63976;DHT22;50167;47.958;21.780;2023-08-21T10:52:41;33.81;44.82
63976;DHT22;50167;47.958;21.780;2023-08-21T10:55:08;33.95;44.18
63976;DHT22;50167;47.958;21.780;2023-08-21T10:57:37;34.08;44.25
63976;DHT22;50167;47.958;21.780;2023-08-21T11:00:13;34.10;44.08
63976;DHT22;50167;47.958;21.780;2023-08-21T11:02:42;34.18;44.15
63976;DHT22;50167;47.958;21.780;2023-08-21T11:05:10;34.19;44.18
63976;DHT22;50167;47.958;21.780;2023-08-21T11:07:46;34.22;44.21
63976;DHT22;50167;47.958;21.780;2023-08-21T11:10:15;34.30;44.64
63976;DHT22;50167;47.958;21.780;2023-08-21T11:12:54;34.39;43.77
63976;DHT22;50167;47.958;21.780;2023-08-21T11:15:26;34.47;44.19
63976;DHT22;50167;47.958;21.780;2023-08-21T11:18:02;34.56;44.72
63976;DHT22;50167;47.958;21.780;2023-08-21T11:20:30;34.70;44.05
63976;DHT22;50167;47.958;21.780;2023-08-21T11:23:02;34.84;44.93
63976;DHT22;50167;47.958;21.780;2023-08-21T11:25:31;34.94;43.37
63976;DHT22;50167;47.958;21.780;2023-08-21T11:27:57;34.95;41.91
63976;DHT22;50167;47.958;21.780;2023-08-21T11:30:24;34.88;42.88
63976;DHT22;50167;47.958;21.780;2023-08-21T11:35:35;34.83;43.10
63976;DHT22;50167;47.958;21.780;2023-08-21T11:38:02;34.90;42.51
63976;DHT22;50167;47.958;21.780;2023-08-21T11:40:29;34.85;41.34
63976;DHT22;50167;47.958;21.780;2023-08-21T11:43:00;34.73;41.19
63976;DHT22;50167;47.958;21.780;2023-08-21T11:45:27;34.70;42.04
63976;DHT22;50167;47.958;21.780;2023-08-21T11:47:58;34.73;42.88
63976;DHT22;50167;47.958;21.780;2023-08-21T11:50:25;34.80;42.99
63976;DHT22;50167;47.958;21.780;2023-08-21T11:52:54;34.87;43.15
63976;DHT22;50167;47.958;21.780;2023-08-21T11:55:21;34.97;43.01
63976;DHT22;50167;47.958;21.780;2023-08-21T11:57:52;35.08;42.60
63976;DHT22;50167;47.958;21.780;2023-08-21T12:00:26;35.18;41.94
63976;DHT22;50167;47.958;21.780;2023-08-21T12:02:57;35.16;41.48
63976;DHT22;50167;47.958;21.780;2023-08-21T12:05:24;35.16;41.77
63976;DHT22;50167;47.958;21.780;2023-08-21T12:07:51;35.19;41.73
63976;DHT22;50167;47.958;21.780;2023-08-21T12:10:29;35.24;41.95
63976;DHT22;50167;47.958;21.780;2023-08-21T12:12:56;35.31;41.25
63976;DHT22;50167;47.958;21.780;2023-08-21T12:15:22;35.36;41.79
63976;DHT22;50167;47.958;21.780;2023-08-21T12:17:48;35.35;42.56
63976;DHT22;50167;47.958;21.780;2023-08-21T12:20:15;35.41;41.16
63976;DHT22;50167;47.958;21.780;2023-08-21T12:22:41;35.41;41.22
63976;DHT22;50167;47.958;21.780;2023-08-21T12:25:11;35.33;40.79
63976;DHT22;50167;47.958;21.780;2023-08-21T12:27:37;35.33;41.50
63976;DHT22;50167;47.958;21.780;2023-08-21T12:30:05;35.39;41.43
63976;DHT22;50167;47.958;21.780;2023-08-21T12:32:31;35.48;41.81
63976;DHT22;50167;47.958;21.780;2023-08-21T12:34:58;35.62;40.94
63976;DHT22;50167;47.958;21.780;2023-08-21T12:41:26;37.02;38.79
63976;DHT22;50167;47.958;21.780;2023-08-21T12:43:52;37.75;36.75
63976;DHT22;50167;47.958;21.780;2023-08-21T12:46:18;38.50;35.90
63976;DHT22;50167;47.958;21.780;2023-08-21T12:48:45;39.25;35.77
63976;DHT22;50167;47.958;21.780;2023-08-21T12:51:11;39.94;34.53
63976;DHT22;50167;47.958;21.780;2023-08-21T12:53:37;40.51;33.13
63976;DHT22;50167;47.958;21.780;2023-08-21T12:56:04;41.05;33.23
63976;DHT22;50167;47.958;21.780;2023-08-21T12:58:30;41.26;31.95
63976;DHT22;50167;47.958;21.780;2023-08-21T13:00:56;41.32;30.82
63976;DHT22;50167;47.958;21.780;2023-08-21T13:03:23;41.55;31.45
63976;DHT22;50167;47.958;21.780;2023-08-21T13:05:49;41.84;30.48
63976;DHT22;50167;47.958;21.780;2023-08-21T13:08:15;42.03;30.33
63976;DHT22;50167;47.958;21.780;2023-08-21T13:10:42;42.25;30.44
63976;DHT22;50167;47.958;21.780;2023-08-21T13:13:08;42.26;29.85
63976;DHT22;50167;47.958;21.780;2023-08-21T13:15:34;42.26;29.66
63976;DHT22;50167;47.958;21.780;2023-08-21T13:18:01;42.33;29.28
63976;DHT22;50167;47.958;21.780;2023-08-21T13:20:27;42.54;29.28
63976;DHT22;50167;47.958;21.780;2023-08-21T13:22:55;42.87;28.64
63976;DHT22;50167;47.958;21.780;2023-08-21T13:25:23;43.21;29.62
63976;DHT22;50167;47.958;21.780;2023-08-21T13:28:08;43.51;28.83
63976;DHT22;50167;47.958;21.780;2023-08-21T13:30:34;43.70;27.74
63976;DHT22;50167;47.958;21.780;2023-08-21T13:33:00;43.78;27.84
63976;DHT22;50167;47.958;21.780;2023-08-21T13:35:30;43.76;27.42
63976;DHT22;50167;47.958;21.780;2023-08-21T13:37:57;43.73;27.71
63976;DHT22;50167;47.958;21.780;2023-08-21T13:40:24;43.83;27.51
63976;DHT22;50167;47.958;21.780;2023-08-21T13:42:50;43.99;28.00
63976;DHT22;50167;47.958;21.780;2023-08-21T13:45:19;44.17;27.33
63976;DHT22;50167;47.958;21.780;2023-08-21T13:47:48;44.41;26.86
63976;DHT22;50167;47.958;21.780;2023-08-21T13:50:17;44.62;27.22
63976;DHT22;50167;47.958;21.780;2023-08-21T13:52:45;44.83;27.22
63976;DHT22;50167;47.958;21.780;2023-08-21T13:55:13;44.98;27.56
63976;DHT22;50167;47.958;21.780;2023-08-21T13:57:40;45.12;27.11
63976;DHT22;50167;47.958;21.780;2023-08-21T14:00:09;45.19;26.40
63976;DHT22;50167;47.958;21.780;2023-08-21T14:02:38;45.09;26.52
63976;DHT22;50167;47.958;21.780;2023-08-21T14:05:05;44.92;27.26
63976;DHT22;50167;47.958;21.780;2023-08-21T14:07:32;44.91;26.97
63976;DHT22;50167;47.958;21.780;2023-08-21T14:09:59;44.86;26.72
63976;DHT22;50167;47.958;21.780;2023-08-21T14:12:29;44.89;26.85
63976;DHT22;50167;47.958;21.780;2023-08-21T14:14:57;44.92;26.78
63976;DHT22;50167;47.958;21.780;2023-08-21T14:17:24;44.86;27.22
63976;DHT22;50167;47.958;21.780;2023-08-21T14:19:50;44.78;26.67
63976;DHT22;50167;47.958;21.780;2023-08-21T14:22:17;44.57;26.65
63976;DHT22;50167;47.958;21.780;2023-08-21T14:24:43;44.44;26.46
63976;DHT22;50167;47.958;21.780;2023-08-21T14:27:09;44.38;26.69
63976;DHT22;50167;47.958;21.780;2023-08-21T14:29:35;44.35;26.75
63976;DHT22;50167;47.958;21.780;2023-08-21T14:32:02;44.47;26.95
63976;DHT22;50167;47.958;21.780;2023-08-21T14:34:28;44.61;26.83
63976;DHT22;50167;47.958;21.780;2023-08-21T14:36:55;44.68;26.57
63976;DHT22;50167;47.958;21.780;2023-08-21T14:39:23;44.79;26.83
63976;DHT22;50167;47.958;21.780;2023-08-21T14:41:57;44.96;26.83
63976;DHT22;50167;47.958;21.780;2023-08-21T14:44:24;45.08;26.42
63976;DHT22;50167;47.958;21.780;2023-08-21T14:46:55;44.99;26.61
63976;DHT22;50167;47.958;21.780;2023-08-21T14:49:23;44.62;26.19
63976;DHT22;50167;47.958;21.780;2023-08-21T14:51:49;44.11;25.92
63976;DHT22;50167;47.958;21.780;2023-08-21T14:54:15;43.32;27.00
63976;DHT22;50167;47.958;21.780;2023-08-21T14:56:42;42.26;28.42
63976;DHT22;50167;47.958;21.780;2023-08-21T14:59:08;41.19;29.60
63976;DHT22;50167;47.958;21.780;2023-08-21T15:01:38;40.20;31.14
63976;DHT22;50167;47.958;21.780;2023-08-21T15:04:06;39.35;32.30
63976;DHT22;50167;47.958;21.780;2023-08-21T15:06:35;38.77;32.96
63976;DHT22;50167;47.958;21.780;2023-08-21T15:09:02;38.16;33.52
63976;DHT22;50167;47.958;21.780;2023-08-21T15:11:28;37.48;34.79
63976;DHT22;50167;47.958;21.780;2023-08-21T15:13:55;36.85;35.69
63976;DHT22;50167;47.958;21.780;2023-08-21T15:16:21;36.35;37.07
63976;DHT22;50167;47.958;21.780;2023-08-21T15:18:47;35.94;38.44
63976;DHT22;50167;47.958;21.780;2023-08-21T15:21:15;35.60;38.87
63976;DHT22;50167;47.958;21.780;2023-08-21T15:23:41;35.32;39.21
63976;DHT22;50167;47.958;21.780;2023-08-21T15:26:07;34.98;39.66
63976;DHT22;50167;47.958;21.780;2023-08-21T15:28:33;34.67;39.99
63976;DHT22;50167;47.958;21.780;2023-08-21T15:31:00;34.46;40.50